Westgard — PDBQ — position and weather

sailwx.info

Track history (hours):
 
Tides and Currents Weather Stations Pressure Air Temp Water Temp Dewpoint Dewpoint Depression Visibility Wind Speed Wind Dir Waves Ship Positions

Westgard

Last reported at 2016-May-04 18:30 UTC. Time now 2016-May-04 19:16 UTC.
Position N 54°34' E 012°28'.

Length 89 m; draft 5.4 m.

Type: Ship. MMSI: 246457000.

Date/timePositionNaut miles runAvg speedWind from/ knotsBaromVisibWave heightAir tempDewpointWater temp
2016-May-04 18:30N 54°34' E 012°28'11 9.7
2016-May-04 17:24N 54°27' E 012°13'8 9.4
2016-May-04 16:33N 54°22' E 012°04'9 9.2
2016-May-04 15:33N 54°17' E 011°51'10 9.8
2016-May-04 14:32N 54°10' E 011°37'17 2.4
2016-May-04 07:32N 53°54' E 011°28'0 0.0
2016-May-04 06:32N 53°54' E 011°28'0 0.0
2016-May-04 05:32N 53°54' E 011°28'0 0.0
2016-May-04 04:32N 53°54' E 011°28'0 0.0
2016-May-04 03:32N 53°54' E 011°28'0 0.0
2016-May-04 02:32N 53°54' E 011°28'0 0.0
2016-May-04 01:32N 53°54' E 011°28'0 0.0
2016-May-04 00:32N 53°54' E 011°28'0 0.0
2016-May-03 23:32N 53°54' E 011°28'0 0.0
2016-May-03 22:32N 53°54' E 011°28'0 0.0
2016-May-03 21:32N 53°54' E 011°28'0 0.0
2016-May-03 20:32N 53°54' E 011°28'0 0.0
2016-May-03 19:32N 53°54' E 011°28'0 0.0
2016-May-03 18:32N 53°54' E 011°28'0 0.0
2016-May-03 17:32N 53°54' E 011°28'0 0.0
2016-May-03 16:32N 53°54' E 011°28'0 0.0
2016-May-03 15:32N 53°54' E 011°28'0 0.0
2016-May-03 14:31N 53°54' E 011°28'0 0.0
2016-May-03 13:31N 53°54' E 011°28'0 0.0
2016-May-03 12:31N 53°54' E 011°28'0 0.2
2016-May-03 11:33N 53°54' E 011°27'0 0.0
2016-May-03 10:33N 53°54' E 011°27'0 0.0
2016-May-03 09:33N 53°54' E 011°27'0 0.0
2016-May-03 08:33N 53°54' E 011°27'0 0.0
2016-May-03 07:33N 53°54' E 011°27'0 0.0
2016-May-03 06:33N 53°54' E 011°27'0 0.0
2016-May-03 05:33N 53°54' E 011°27'0 0.0
2016-May-03 04:33N 53°54' E 011°27'0 0.0
2016-May-03 03:33N 53°54' E 011°27'0 0.0
2016-May-03 02:33N 53°54' E 011°27'0 0.0
2016-May-03 01:33N 53°54' E 011°27'0 0.0
2016-May-03 00:30N 53°54' E 011°27'0 0.0
2016-May-02 23:33N 53°54' E 011°27'0 0.0
2016-May-02 22:33N 53°54' E 011°27'0 0.0
2016-May-02 21:33N 53°54' E 011°27'0 0.1
2016-May-02 20:33N 53°54' E 011°27'9 8.6
2016-May-02 19:33N 54°01' E 011°19'1110.5
2016-May-02 18:33N 54°12' E 011°19'1111.2
2016-May-02 17:33N 54°23' E 011°21'10 9.9
2016-May-02 16:33N 54°32' E 011°14'10 9.9
2016-May-02 15:33N 54°36' E 010°58'1010.3
2016-May-02 14:33N 54°41' E 010°43'1110.9
2016-May-02 13:33N 54°47' E 010°27'1211.0
2016-May-02 12:29N 54°56' E 010°13'  
2016-Apr-25 21:33N 54°29' E 010°18'9 9.5
2016-Apr-25 20:33N 54°22' E 010°09'3 2.5
2016-Apr-25 19:33N 54°22' E 010°04'33 6.6
2016-Apr-25 14:32N 54°03' E 009°18'5 5.0
2016-Apr-25 13:33N 53°58' E 009°15'6 5.7
2016-Apr-25 12:33N 53°54' E 009°09'1 1.4
2016-Apr-25 11:33N 53°53' E 009°07'8 8.2
2016-Apr-25 10:33N 53°50' E 008°54'9 9.4
2016-Apr-25 09:33N 53°55' E 008°40'1010.1
2016-Apr-25 08:33N 53°59' E 008°24'1111.3
2016-Apr-25 07:33N 53°59' E 008°05'1110.9
2016-Apr-25 06:33N 53°57' E 007°46'1010.2
2016-Apr-25 05:33N 53°55' E 007°30'10 9.9
2016-Apr-25 04:33N 53°52' E 007°13'10 9.9
2016-Apr-25 03:33N 53°50' E 006°57'10 9.8
2016-Apr-25 02:33N 53°48' E 006°41'1010.0
2016-Apr-25 01:33N 53°45' E 006°24'1010.2
2016-Apr-25 00:33N 53°42' E 006°08'1110.6
2016-Apr-24 23:33N 53°38' E 005°51'1110.9
2016-Apr-24 22:33N 53°35' E 005°34'1110.9
2016-Apr-24 21:34N 53°31' E 005°16'  
Track history (hours):
 
Tides and Currents Weather Stations Pressure Air Temp Water Temp Dewpoint Dewpoint Depression Visibility Wind Speed Wind Dir Waves Ship Positions

Westgard

Last reported at 2016-May-04 18:30 UTC. Time now 2016-May-04 19:16 UTC.
Position N 54°34' E 012°28'.

Length 89 m; draft 5.4 m.

Type: Ship. MMSI: 246457000.

Date/timePositionNaut miles runAvg speedWind from/ knotsBaromVisibWave heightAir tempDewpointWater temp
2016-May-04 18:30N 54°34' E 012°28'11 9.7
2016-May-04 17:24N 54°27' E 012°13'8 9.4
2016-May-04 16:33N 54°22' E 012°04'9 9.2
2016-May-04 15:33N 54°17' E 011°51'10 9.8
2016-May-04 14:32N 54°10' E 011°37'17 2.4
2016-May-04 07:32N 53°54' E 011°28'0 0.0
2016-May-04 06:32N 53°54' E 011°28'0 0.0
2016-May-04 05:32N 53°54' E 011°28'0 0.0
2016-May-04 04:32N 53°54' E 011°28'0 0.0
2016-May-04 03:32N 53°54' E 011°28'0 0.0
2016-May-04 02:32N 53°54' E 011°28'0 0.0
2016-May-04 01:32N 53°54' E 011°28'0 0.0
2016-May-04 00:32N 53°54' E 011°28'0 0.0
2016-May-03 23:32N 53°54' E 011°28'0 0.0
2016-May-03 22:32N 53°54' E 011°28'0 0.0
2016-May-03 21:32N 53°54' E 011°28'0 0.0
2016-May-03 20:32N 53°54' E 011°28'0 0.0
2016-May-03 19:32N 53°54' E 011°28'0 0.0
2016-May-03 18:32N 53°54' E 011°28'0 0.0
2016-May-03 17:32N 53°54' E 011°28'0 0.0
2016-May-03 16:32N 53°54' E 011°28'0 0.0
2016-May-03 15:32N 53°54' E 011°28'0 0.0
2016-May-03 14:31N 53°54' E 011°28'0 0.0
2016-May-03 13:31N 53°54' E 011°28'0 0.0
2016-May-03 12:31N 53°54' E 011°28'0 0.2
2016-May-03 11:33N 53°54' E 011°27'0 0.0
2016-May-03 10:33N 53°54' E 011°27'0 0.0
2016-May-03 09:33N 53°54' E 011°27'0 0.0
2016-May-03 08:33N 53°54' E 011°27'0 0.0
2016-May-03 07:33N 53°54' E 011°27'0 0.0
2016-May-03 06:33N 53°54' E 011°27'0 0.0
2016-May-03 05:33N 53°54' E 011°27'0 0.0
2016-May-03 04:33N 53°54' E 011°27'0 0.0
2016-May-03 03:33N 53°54' E 011°27'0 0.0
2016-May-03 02:33N 53°54' E 011°27'0 0.0
2016-May-03 01:33N 53°54' E 011°27'0 0.0
2016-May-03 00:30N 53°54' E 011°27'0 0.0
2016-May-02 23:33N 53°54' E 011°27'0 0.0
2016-May-02 22:33N 53°54' E 011°27'0 0.0
2016-May-02 21:33N 53°54' E 011°27'0 0.1
2016-May-02 20:33N 53°54' E 011°27'9 8.6
2016-May-02 19:33N 54°01' E 011°19'1110.5
2016-May-02 18:33N 54°12' E 011°19'1111.2
2016-May-02 17:33N 54°23' E 011°21'10 9.9
2016-May-02 16:33N 54°32' E 011°14'10 9.9
2016-May-02 15:33N 54°36' E 010°58'1010.3
2016-May-02 14:33N 54°41' E 010°43'1110.9
2016-May-02 13:33N 54°47' E 010°27'1211.0
2016-May-02 12:29N 54°56' E 010°13'  
2016-Apr-25 21:33N 54°29' E 010°18'9 9.5
2016-Apr-25 20:33N 54°22' E 010°09'3 2.5
2016-Apr-25 19:33N 54°22' E 010°04'33 6.6
2016-Apr-25 14:32N 54°03' E 009°18'5 5.0
2016-Apr-25 13:33N 53°58' E 009°15'6 5.7
2016-Apr-25 12:33N 53°54' E 009°09'1 1.4
2016-Apr-25 11:33N 53°53' E 009°07'8 8.2
2016-Apr-25 10:33N 53°50' E 008°54'9 9.4
2016-Apr-25 09:33N 53°55' E 008°40'1010.1
2016-Apr-25 08:33N 53°59' E 008°24'1111.3
2016-Apr-25 07:33N 53°59' E 008°05'1110.9
2016-Apr-25 06:33N 53°57' E 007°46'1010.2
2016-Apr-25 05:33N 53°55' E 007°30'10 9.9
2016-Apr-25 04:33N 53°52' E 007°13'10 9.9
2016-Apr-25 03:33N 53°50' E 006°57'10 9.8
2016-Apr-25 02:33N 53°48' E 006°41'1010.0
2016-Apr-25 01:33N 53°45' E 006°24'1010.2
2016-Apr-25 00:33N 53°42' E 006°08'1110.6
2016-Apr-24 23:33N 53°38' E 005°51'1110.9
2016-Apr-24 22:33N 53°35' E 005°34'1110.9
2016-Apr-24 21:34N 53°31' E 005°16'  

Dump ship's entire track history